Time;durP1;ratioP1;P1;durP2;ratioP2;P2;SDS_P1;SDS_P2;PMS_P1;PMS_P2;Temp;Humidity;BMP_temperature;BMP_pressure;BME280_temperature;BME280_humidity;BME280_pressure;Samples;Min_cycle;Max_cycle;Signal;HPM_P1;HPM_P2
2023/12/17 00:01:45;;;;;;;;;;;3.60;99.90;;;;;;5065126;28;19995;-66
2023/12/17 00:04:12;;;;;;;;;;;3.60;99.90;;;;;;5065464;28;19975;-67
2023/12/17 00:06:41;;;;;;;;;;;3.60;99.90;;;;;;5063836;28;20022;-66
2023/12/17 00:09:08;;;;;;;;;;;3.60;99.90;;;;;;5065376;28;20035;-67
2023/12/17 00:11:38;;;;;;;;;;;3.60;99.90;;;;;;5065632;28;19975;-68
2023/12/17 00:14:05;;;;;;;;;;;3.60;99.90;;;;;;5062812;28;19979;-67
2023/12/17 00:16:32;;;;;;;;;;;3.60;99.90;;;;;;5065862;28;20510;-67
2023/12/17 00:18:58;;;;;;;;;;;3.60;99.90;;;;;;5063932;28;19995;-66
2023/12/17 00:21:25;;;;;;;;;;;3.60;99.90;;;;;;5065299;28;20033;-68
2023/12/17 00:23:52;;;;;;;;;;;3.60;99.90;;;;;;5065365;28;19983;-66
2023/12/17 00:26:19;;;;;;;;;;;3.50;99.90;;;;;;5064522;28;20408;-67
2023/12/17 00:28:46;;;;;;;;;;;3.50;99.90;;;;;;5064919;28;19998;-67
2023/12/17 00:31:12;;;;;;;;;;;3.50;99.90;;;;;;5064967;28;20006;-66
2023/12/17 00:33:39;;;;;;;;;;;3.50;99.90;;;;;;5065729;28;19975;-66
2023/12/17 00:36:06;;;;;;;;;;;3.50;99.90;;;;;;5064720;28;20451;-67
2023/12/17 00:38:32;;;;;;;;;;;3.50;99.90;;;;;;5065169;28;19995;-67
2023/12/17 00:41:00;;;;;;;;;;;3.50;99.90;;;;;;5065651;28;20441;-67
2023/12/17 00:43:26;;;;;;;;;;;3.40;99.90;;;;;;5065367;28;19975;-67
2023/12/17 00:45:53;;;;;;;;;;;3.50;99.90;;;;;;5064361;28;20004;-66
2023/12/17 00:48:19;;;;;;;;;;;3.40;99.90;;;;;;5065868;28;20042;-67
2023/12/17 00:50:46;;;;;;;;;;;3.40;99.90;;;;;;5065442;28;19980;-66
2023/12/17 00:53:12;;;;;;;;;;;3.40;99.90;;;;;;5065095;28;20394;-66
2023/12/17 00:55:39;;;;;;;;;;;3.40;99.90;;;;;;5065671;28;19975;-66
2023/12/17 00:58:07;;;;;;;;;;;3.40;99.90;;;;;;5064997;28;19999;-66
2023/12/17 01:00:33;;;;;;;;;;;3.40;99.90;;;;;;5065373;28;20002;-67
2023/12/17 01:03:00;;;;;;;;;;;3.40;99.90;;;;;;5066966;28;19986;-67
2023/12/17 01:05:26;;;;;;;;;;;3.30;99.90;;;;;;5066002;28;20441;-67
2023/12/17 01:07:53;;;;;;;;;;;3.30;99.90;;;;;;5067020;28;19991;-66
2023/12/17 01:10:19;;;;;;;;;;;3.30;99.90;;;;;;5065908;28;19990;-67
2023/12/17 01:12:46;;;;;;;;;;;3.30;99.90;;;;;;5065776;28;19971;-66
2023/12/17 01:15:14;;;;;;;;;;;3.30;99.90;;;;;;5062985;28;20368;-67
2023/12/17 01:17:40;;;;;;;;;;;3.30;99.90;;;;;;5068337;28;20017;-67
2023/12/17 01:20:08;;;;;;;;;;;3.30;99.90;;;;;;5072874;28;19979;-66
2023/12/17 01:22:35;;;;;;;;;;;3.30;99.90;;;;;;5071372;28;20065;-67
2023/12/17 01:25:01;;;;;;;;;;;3.30;99.90;;;;;;5072554;28;19983;-67
2023/12/17 01:27:28;;;;;;;;;;;3.30;99.90;;;;;;5072397;28;19982;-67
2023/12/17 01:29:54;;;;;;;;;;;3.20;99.90;;;;;;5071420;28;20407;-66
2023/12/17 01:32:22;;;;;;;;;;;3.20;99.90;;;;;;5071915;28;19999;-67
2023/12/17 01:34:48;;;;;;;;;;;3.20;99.90;;;;;;5072162;28;19979;-67
2023/12/17 01:37:15;;;;;;;;;;;3.20;99.90;;;;;;5072367;28;19991;-67
2023/12/17 01:39:41;;;;;;;;;;;3.20;99.90;;;;;;5072332;28;20065;-66
2023/12/17 01:42:08;;;;;;;;;;;3.20;99.90;;;;;;5072851;28;19980;-65
2023/12/17 01:44:35;;;;;;;;;;;3.20;99.90;;;;;;5070252;28;19979;-67
2023/12/17 01:47:01;;;;;;;;;;;3.20;99.90;;;;;;5071971;28;19999;-66
2023/12/17 01:49:29;;;;;;;;;;;3.20;99.90;;;;;;5071700;28;20006;-67
2023/12/17 01:51:56;;;;;;;;;;;3.20;99.90;;;;;;5071210;28;20439;-67
2023/12/17 01:54:23;;;;;;;;;;;3.20;99.90;;;;;;5071226;28;19996;-68
2023/12/17 01:56:49;;;;;;;;;;;3.20;99.90;;;;;;5072999;28;19976;-67
2023/12/17 01:59:16;;;;;;;;;;;3.20;99.90;;;;;;5069549;28;20097;-65
2023/12/17 02:01:43;;;;;;;;;;;3.20;99.90;;;;;;5069234;28;19991;-67
2023/12/17 02:04:10;;;;;;;;;;;3.20;99.90;;;;;;5069601;28;19991;-67
2023/12/17 02:06:38;;;;;;;;;;;3.10;99.90;;;;;;5069446;28;20021;-66
2023/12/17 02:09:05;;;;;;;;;;;3.10;99.90;;;;;;5069384;28;19999;-66
2023/12/17 02:11:31;;;;;;;;;;;3.10;99.90;;;;;;5072018;28;19983;-68
2023/12/17 02:13:58;;;;;;;;;;;3.10;99.90;;;;;;5071179;28;19995;-66
2023/12/17 02:16:24;;;;;;;;;;;3.10;99.90;;;;;;5070799;28;19999;-67
2023/12/17 02:18:51;;;;;;;;;;;3.10;99.90;;;;;;5069686;28;19996;-66
2023/12/17 02:21:18;;;;;;;;;;;3.10;99.90;;;;;;5071634;28;19986;-66
2023/12/17 02:23:45;;;;;;;;;;;3.10;99.90;;;;;;5070207;28;19975;-67
2023/12/17 02:26:12;;;;;;;;;;;3.10;99.90;;;;;;5072562;28;19981;-66
2023/12/17 02:28:39;;;;;;;;;;;3.10;99.90;;;;;;5070114;28;20041;-66
2023/12/17 02:31:05;;;;;;;;;;;3.10;99.90;;;;;;5066287;28;19996;-66
2023/12/17 02:33:32;;;;;;;;;;;3.00;99.90;;;;;;5069285;28;20445;-68
2023/12/17 02:35:58;;;;;;;;;;;3.00;99.90;;;;;;5067913;28;20049;-66
2023/12/17 02:38:25;;;;;;;;;;;3.00;99.90;;;;;;5067427;28;19999;-65
2023/12/17 02:40:53;;;;;;;;;;;3.00;99.90;;;;;;5066721;28;19975;-67
2023/12/17 02:43:19;;;;;;;;;;;3.00;99.90;;;;;;5067742;28;19979;-67
2023/12/17 02:45:46;;;;;;;;;;;3.00;99.90;;;;;;5065010;28;19991;-67
2023/12/17 02:48:12;;;;;;;;;;;3.00;99.90;;;;;;5069122;28;19999;-67
2023/12/17 02:50:39;;;;;;;;;;;2.90;99.90;;;;;;5067490;28;19979;-67
2023/12/17 02:53:05;;;;;;;;;;;2.90;99.90;;;;;;5067396;28;19980;-66
2023/12/17 02:55:32;;;;;;;;;;;2.90;99.90;;;;;;5067404;28;19986;-67
2023/12/17 02:58:00;;;;;;;;;;;2.90;99.90;;;;;;5067904;28;19999;-66
2023/12/17 03:00:26;;;;;;;;;;;2.90;99.90;;;;;;5066293;28;20925;-66
2023/12/17 03:02:53;;;;;;;;;;;2.90;99.90;;;;;;5063372;28;19975;-66
2023/12/17 03:05:19;;;;;;;;;;;2.90;99.90;;;;;;5065649;28;20033;-66
2023/12/17 03:07:46;;;;;;;;;;;2.90;99.90;;;;;;5066044;28;20037;-66
2023/12/17 03:10:12;;;;;;;;;;;2.90;99.90;;;;;;5066316;28;20395;-67
2023/12/17 03:12:39;;;;;;;;;;;2.90;99.90;;;;;;5068015;28;19983;-66
2023/12/17 03:15:07;;;;;;;;;;;2.90;99.90;;;;;;5064720;28;19980;-66
2023/12/17 03:17:35;;;;;;;;;;;2.80;99.90;;;;;;5067954;28;19999;-66
2023/12/17 03:20:04;;;;;;;;;;;2.80;99.90;;;;;;5068208;28;20082;-67
2023/12/17 03:22:30;;;;;;;;;;;2.80;99.90;;;;;;5064364;28;20076;-67
2023/12/17 03:24:57;;;;;;;;;;;2.80;99.90;;;;;;5067328;28;20044;-67
2023/12/17 03:27:23;;;;;;;;;;;2.80;99.90;;;;;;5068697;28;19983;-66
2023/12/17 03:29:51;;;;;;;;;;;2.80;99.90;;;;;;5064357;28;20525;-67
2023/12/17 03:32:19;;;;;;;;;;;2.80;99.90;;;;;;5065830;28;20391;-66
2023/12/17 03:34:47;;;;;;;;;;;2.80;99.90;;;;;;5066975;28;19975;-67
2023/12/17 03:37:14;;;;;;;;;;;2.80;99.90;;;;;;5065894;28;19986;-67
2023/12/17 03:39:40;;;;;;;;;;;2.80;99.90;;;;;;5065507;28;19991;-66
2023/12/17 03:42:07;;;;;;;;;;;2.80;99.90;;;;;;5068384;28;19975;-66
2023/12/17 03:44:34;;;;;;;;;;;2.80;99.90;;;;;;5065743;28;20400;-67
2023/12/17 03:47:00;;;;;;;;;;;2.70;99.90;;;;;;5067895;28;20085;-67
2023/12/17 03:49:28;;;;;;;;;;;2.80;99.90;;;;;;5067574;28;19995;-67
2023/12/17 03:51:55;;;;;;;;;;;2.70;99.90;;;;;;5067698;28;19979;-68
2023/12/17 03:54:21;;;;;;;;;;;2.80;99.90;;;;;;5065248;28;19979;-66
2023/12/17 03:56:48;;;;;;;;;;;2.70;99.90;;;;;;5063506;28;20433;-66
2023/12/17 03:59:15;;;;;;;;;;;2.70;99.90;;;;;;5066254;28;20001;-66
2023/12/17 04:01:45;;;;;;;;;;;2.70;99.90;;;;;;5061705;28;19999;-67
2023/12/17 04:04:11;;;;;;;;;;;2.70;99.90;;;;;;5065364;28;20074;-67
2023/12/17 04:06:41;;;;;;;;;;;2.70;99.90;;;;;;5063949;28;19979;-66
2023/12/17 04:09:08;;;;;;;;;;;2.70;99.90;;;;;;5065640;28;19995;-66
2023/12/17 04:11:34;;;;;;;;;;;2.70;99.90;;;;;;5065036;28;20031;-66
2023/12/17 04:14:01;;;;;;;;;;;2.60;99.90;;;;;;5065267;28;19983;-66
2023/12/17 04:16:28;;;;;;;;;;;2.60;99.90;;;;;;5063644;28;19995;-66
2023/12/17 04:18:54;;;;;;;;;;;2.60;99.90;;;;;;5066445;28;19991;-66
2023/12/17 04:21:21;;;;;;;;;;;2.60;99.90;;;;;;5068377;28;19991;-67
2023/12/17 04:23:49;;;;;;;;;;;2.60;99.90;;;;;;5066367;28;19972;-66
2023/12/17 04:26:15;;;;;;;;;;;2.60;99.90;;;;;;5067744;28;19979;-66
2023/12/17 04:28:42;;;;;;;;;;;2.60;99.90;;;;;;5066054;28;19995;-67
2023/12/17 04:31:08;;;;;;;;;;;2.60;99.90;;;;;;5065907;28;19998;-66
2023/12/17 04:33:35;;;;;;;;;;;2.60;99.90;;;;;;5067101;28;20325;-66
2023/12/17 04:36:01;;;;;;;;;;;2.50;99.90;;;;;;5063878;28;20029;-66
2023/12/17 04:38:28;;;;;;;;;;;2.50;99.90;;;;;;5067008;28;20003;-66
2023/12/17 04:40:56;;;;;;;;;;;2.50;99.90;;;;;;5064998;28;20003;-65
2023/12/17 04:43:23;;;;;;;;;;;2.50;99.90;;;;;;5066932;28;19979;-67
2023/12/17 04:45:50;;;;;;;;;;;2.50;99.90;;;;;;5062023;28;20589;-66
2023/12/17 04:48:16;;;;;;;;;;;2.50;99.90;;;;;;5067198;28;19995;-66
2023/12/17 04:50:43;;;;;;;;;;;2.60;99.90;;;;;;5066273;28;19984;-67
2023/12/17 04:53:09;;;;;;;;;;;2.50;99.90;;;;;;5066391;28;19976;-66
2023/12/17 04:55:36;;;;;;;;;;;2.50;99.90;;;;;;5063620;28;20388;-66
2023/12/17 04:58:04;;;;;;;;;;;2.50;99.90;;;;;;5066262;28;20377;-67
2023/12/17 05:00:30;;;;;;;;;;;2.50;99.90;;;;;;5064808;28;20060;-66
2023/12/17 05:02:57;;;;;;;;;;;2.50;99.90;;;;;;5061140;28;19986;-67
2023/12/17 05:05:23;;;;;;;;;;;2.50;99.90;;;;;;5064225;28;19983;-66
2023/12/17 05:07:51;;;;;;;;;;;2.40;99.90;;;;;;5060157;28;20053;-66
2023/12/17 05:10:17;;;;;;;;;;;2.40;99.90;;;;;;5064329;28;19978;-67
2023/12/17 05:12:44;;;;;;;;;;;2.40;99.90;;;;;;5062865;28;20405;-66
2023/12/17 05:15:12;;;;;;;;;;;2.40;99.90;;;;;;5064072;28;20484;-67
2023/12/17 05:17:38;;;;;;;;;;;2.40;99.90;;;;;;5066017;28;20586;-66
2023/12/17 05:20:06;;;;;;;;;;;2.50;99.90;;;;;;5066488;28;20407;-67
2023/12/17 05:22:32;;;;;;;;;;;2.40;99.90;;;;;;5065347;28;19979;-67
2023/12/17 05:25:00;;;;;;;;;;;2.40;99.90;;;;;;5065813;28;19976;-68
2023/12/17 05:27:26;;;;;;;;;;;2.40;99.90;;;;;;5066317;28;19979;-66
2023/12/17 05:29:53;;;;;;;;;;;2.40;99.90;;;;;;5062344;28;20481;-67
2023/12/17 05:32:21;;;;;;;;;;;2.40;99.90;;;;;;5065753;28;20464;-67
2023/12/17 05:34:47;;;;;;;;;;;2.40;99.90;;;;;;5064701;28;20575;-67
2023/12/17 05:37:14;;;;;;;;;;;2.30;99.90;;;;;;5066689;28;19979;-66
2023/12/17 05:39:40;;;;;;;;;;;2.30;99.90;;;;;;5063210;28;20585;-66
2023/12/17 05:42:07;;;;;;;;;;;2.30;99.90;;;;;;5065701;28;19983;-67
2023/12/17 05:44:33;;;;;;;;;;;2.40;99.90;;;;;;5064480;28;19975;-67
2023/12/17 05:47:00;;;;;;;;;;;2.30;99.90;;;;;;5065757;28;20075;-68
2023/12/17 05:49:28;;;;;;;;;;;2.30;99.90;;;;;;5064174;28;19995;-66
2023/12/17 05:51:54;;;;;;;;;;;2.30;99.90;;;;;;5065668;28;20445;-66
2023/12/17 05:54:21;;;;;;;;;;;2.30;99.90;;;;;;5061346;28;19990;-66
2023/12/17 05:56:47;;;;;;;;;;;2.30;99.90;;;;;;5065745;28;19979;-67
2023/12/17 05:59:14;;;;;;;;;;;2.30;99.90;;;;;;5065979;28;19995;-67
2023/12/17 06:01:40;;;;;;;;;;;2.30;99.90;;;;;;5063755;28;19999;-68
2023/12/17 06:04:07;;;;;;;;;;;2.30;99.90;;;;;;5066100;28;19987;-66
2023/12/17 06:06:35;;;;;;;;;;;2.30;99.90;;;;;;5069251;28;19987;-67
2023/12/17 06:09:01;;;;;;;;;;;2.20;99.90;;;;;;5069027;28;19998;-66
2023/12/17 06:11:28;;;;;;;;;;;2.30;99.90;;;;;;5066427;28;19986;-67
2023/12/17 06:13:54;;;;;;;;;;;2.30;99.90;;;;;;5066689;28;19982;-66
2023/12/17 06:16:21;;;;;;;;;;;2.20;99.90;;;;;;5068212;28;19999;-67
2023/12/17 06:18:48;;;;;;;;;;;2.20;99.90;;;;;;5068296;28;20500;-66
2023/12/17 06:21:22;;;;;;;;;;;2.20;99.90;;;;;;5069764;28;20113;-67
2023/12/17 06:23:50;;;;;;;;;;;2.20;99.90;;;;;;5067324;28;20061;-66
2023/12/17 06:26:18;;;;;;;;;;;2.20;99.90;;;;;;5070922;28;20040;-67
2023/12/17 06:28:44;;;;;;;;;;;2.20;99.90;;;;;;5066298;28;20141;-65
2023/12/17 06:31:11;;;;;;;;;;;2.10;99.90;;;;;;5065714;28;20451;-66
2023/12/17 06:33:37;;;;;;;;;;;2.10;99.90;;;;;;5069059;28;20057;-66
2023/12/17 06:36:04;;;;;;;;;;;2.20;99.90;;;;;;5068353;28;20449;-67
2023/12/17 06:38:31;;;;;;;;;;;2.10;99.90;;;;;;5069186;28;20003;-66
2023/12/17 06:40:59;;;;;;;;;;;2.10;99.90;;;;;;5069439;28;20376;-66
2023/12/17 06:43:26;;;;;;;;;;;2.10;99.90;;;;;;5067872;28;19980;-67
2023/12/17 06:45:52;;;;;;;;;;;2.10;99.90;;;;;;5066227;28;19995;-66
2023/12/17 06:48:19;;;;;;;;;;;2.10;99.90;;;;;;5064957;28;19995;-66
2023/12/17 06:50:45;;;;;;;;;;;2.10;99.90;;;;;;5065742;28;20006;-66
2023/12/17 06:53:16;;;;;;;;;;;2.10;99.90;;;;;;5067901;28;20453;-66
2023/12/17 06:55:43;;;;;;;;;;;2.10;99.90;;;;;;5066536;28;19983;-67
2023/12/17 06:58:11;;;;;;;;;;;2.10;99.90;;;;;;5070076;28;19995;-66
2023/12/17 07:00:38;;;;;;;;;;;2.00;99.90;;;;;;5065920;28;19999;-66
2023/12/17 07:03:04;;;;;;;;;;;2.10;99.90;;;;;;5068862;28;19986;-66
2023/12/17 07:05:33;;;;;;;;;;;2.00;99.90;;;;;;5066809;28;21303;-67
2023/12/17 07:07:59;;;;;;;;;;;2.00;99.90;;;;;;5066519;28;19992;-67
2023/12/17 07:10:26;;;;;;;;;;;2.00;99.90;;;;;;5066169;28;19986;-65
2023/12/17 07:12:52;;;;;;;;;;;2.00;99.90;;;;;;5067493;28;19983;-67
2023/12/17 07:15:20;;;;;;;;;;;2.00;99.90;;;;;;5062160;28;20001;-67
2023/12/17 07:17:47;;;;;;;;;;;2.00;99.90;;;;;;5066063;28;20041;-67
2023/12/17 07:20:13;;;;;;;;;;;2.00;99.90;;;;;;5068416;28;20415;-66
2023/12/17 07:22:40;;;;;;;;;;;2.00;99.90;;;;;;5064440;28;20010;-67
2023/12/17 07:25:07;;;;;;;;;;;2.00;99.90;;;;;;5067933;28;19979;-66
2023/12/17 07:27:34;;;;;;;;;;;2.00;99.90;;;;;;5068238;28;20048;-68
2023/12/17 07:30:01;;;;;;;;;;;2.00;99.90;;;;;;5066046;28;19976;-67
2023/12/17 07:32:29;;;;;;;;;;;2.00;99.90;;;;;;5065828;28;20018;-67
2023/12/17 07:34:55;;;;;;;;;;;1.90;99.90;;;;;;5069173;28;19980;-67
2023/12/17 07:37:22;;;;;;;;;;;2.00;99.90;;;;;;5067061;28;19979;-67
2023/12/17 07:39:48;;;;;;;;;;;1.90;99.90;;;;;;5064548;28;19986;-67
2023/12/17 07:42:15;;;;;;;;;;;1.90;99.90;;;;;;5067920;28;20659;-66
2023/12/17 07:44:41;;;;;;;;;;;1.90;99.90;;;;;;5065412;28;20066;-66
2023/12/17 07:47:10;;;;;;;;;;;1.90;99.90;;;;;;5065808;28;19995;-67
2023/12/17 07:49:38;;;;;;;;;;;1.90;99.90;;;;;;5067326;28;20159;-66
2023/12/17 07:52:05;;;;;;;;;;;1.90;99.90;;;;;;5065430;28;19971;-67
2023/12/17 07:54:32;;;;;;;;;;;1.90;99.90;;;;;;5067731;28;19984;-67
2023/12/17 07:56:59;;;;;;;;;;;1.90;99.90;;;;;;5067692;28;20338;-66
2023/12/17 07:59:26;;;;;;;;;;;1.90;99.90;;;;;;5065912;28;19995;-67
2023/12/17 08:01:52;;;;;;;;;;;1.90;99.90;;;;;;5063541;28;20006;-67
2023/12/17 08:04:19;;;;;;;;;;;1.90;99.90;;;;;;5064614;28;20706;-66
2023/12/17 08:06:47;;;;;;;;;;;1.90;99.90;;;;;;5064755;28;20482;-67
2023/12/17 08:09:15;;;;;;;;;;;1.90;99.90;;;;;;5064470;28;20492;-67
2023/12/17 08:11:43;;;;;;;;;;;1.90;99.90;;;;;;5066860;28;20075;-67
2023/12/17 08:14:09;;;;;;;;;;;1.90;99.90;;;;;;5065721;28;20003;-66
2023/12/17 08:16:36;;;;;;;;;;;1.90;99.90;;;;;;5065517;28;20400;-67
2023/12/17 08:19:03;;;;;;;;;;;1.90;99.90;;;;;;5067592;28;20065;-66
2023/12/17 08:21:29;;;;;;;;;;;1.90;99.90;;;;;;5064166;28;20303;-67
2023/12/17 08:23:57;;;;;;;;;;;1.90;99.90;;;;;;5065931;28;19983;-67
2023/12/17 08:26:23;;;;;;;;;;;1.90;99.90;;;;;;5066122;28;19990;-66
2023/12/17 08:28:50;;;;;;;;;;;1.90;99.90;;;;;;5064450;28;20618;-66
2023/12/17 08:31:17;;;;;;;;;;;1.80;99.90;;;;;;5064652;28;20002;-67
2023/12/17 08:33:44;;;;;;;;;;;1.90;99.90;;;;;;5066627;28;19979;-68
2023/12/17 08:36:11;;;;;;;;;;;1.80;99.90;;;;;;5063982;28;19984;-67
2023/12/17 08:38:38;;;;;;;;;;;1.80;99.90;;;;;;5066798;28;20002;-65
2023/12/17 08:41:06;;;;;;;;;;;1.80;99.90;;;;;;5065941;28;19995;-66
2023/12/17 08:43:32;;;;;;;;;;;1.80;99.90;;;;;;5067059;28;20002;-68
2023/12/17 08:45:59;;;;;;;;;;;1.80;99.90;;;;;;5065182;28;19996;-66
2023/12/17 08:48:25;;;;;;;;;;;1.80;99.90;;;;;;5066370;28;20048;-66
2023/12/17 08:50:52;;;;;;;;;;;1.80;99.90;;;;;;5064981;28;20437;-68
2023/12/17 08:53:22;;;;;;;;;;;1.80;99.90;;;;;;5064160;28;19985;-66
2023/12/17 08:55:49;;;;;;;;;;;1.80;99.90;;;;;;5065354;28;19985;-67
2023/12/17 08:58:17;;;;;;;;;;;1.80;99.90;;;;;;5066630;28;20858;-67
2023/12/17 09:00:43;;;;;;;;;;;1.80;99.90;;;;;;5065500;28;20021;-68
2023/12/17 09:03:10;;;;;;;;;;;1.80;99.90;;;;;;5066659;28;19991;-67
2023/12/17 09:05:36;;;;;;;;;;;1.80;99.90;;;;;;5066159;28;19984;-66
2023/12/17 09:08:03;;;;;;;;;;;1.80;99.90;;;;;;5065652;28;19998;-67
2023/12/17 09:10:29;;;;;;;;;;;1.90;99.90;;;;;;5065170;28;19986;-68
2023/12/17 09:12:56;;;;;;;;;;;1.80;99.90;;;;;;5064517;28;19980;-66
2023/12/17 09:15:24;;;;;;;;;;;1.80;99.90;;;;;;5062451;28;19979;-68
2023/12/17 09:17:51;;;;;;;;;;;1.80;99.90;;;;;;5064416;28;20385;-66
2023/12/17 09:20:18;;;;;;;;;;;1.80;99.90;;;;;;5064408;28;19983;-67
2023/12/17 09:22:44;;;;;;;;;;;1.80;99.90;;;;;;5067443;28;19975;-67
2023/12/17 09:25:11;;;;;;;;;;;1.80;99.90;;;;;;5065696;28;19979;-67
2023/12/17 09:27:38;;;;;;;;;;;1.80;99.90;;;;;;5067516;28;20003;-66
2023/12/17 09:30:06;;;;;;;;;;;1.80;99.90;;;;;;5063567;28;20108;-67
2023/12/17 09:32:35;;;;;;;;;;;1.80;99.90;;;;;;5066153;28;20459;-68
2023/12/17 09:35:01;;;;;;;;;;;1.80;99.90;;;;;;5068459;28;20029;-67
2023/12/17 09:37:28;;;;;;;;;;;1.80;99.90;;;;;;5064864;28;19979;-67
2023/12/17 09:39:55;;;;;;;;;;;1.80;99.90;;;;;;5070246;28;20094;-68
2023/12/17 09:42:21;;;;;;;;;;;1.80;99.90;;;;;;5069142;28;20730;-67
2023/12/17 09:44:48;;;;;;;;;;;1.80;99.90;;;;;;5068672;28;20533;-67
2023/12/17 09:47:15;;;;;;;;;;;1.80;99.90;;;;;;5067846;28;20069;-67
2023/12/17 09:49:42;;;;;;;;;;;1.90;99.90;;;;;;5069192;28;19986;-67
2023/12/17 09:52:12;;;;;;;;;;;1.90;99.90;;;;;;5066539;28;20412;-66
2023/12/17 09:54:39;;;;;;;;;;;1.90;99.90;;;;;;5072391;28;19982;-66
2023/12/17 09:57:06;;;;;;;;;;;1.90;99.90;;;;;;5069379;28;19975;-67
2023/12/17 09:59:33;;;;;;;;;;;1.90;99.90;;;;;;5070666;28;19991;-67
2023/12/17 10:01:59;;;;;;;;;;;1.90;99.90;;;;;;5068500;28;20523;-67
2023/12/17 10:04:26;;;;;;;;;;;1.90;99.90;;;;;;5067425;28;19975;-66
2023/12/17 10:06:54;;;;;;;;;;;1.90;99.90;;;;;;5071058;28;19979;-68
2023/12/17 10:09:20;;;;;;;;;;;1.90;99.90;;;;;;5067423;28;19999;-67
2023/12/17 10:11:48;;;;;;;;;;;1.90;99.90;;;;;;5066771;28;19975;-67
2023/12/17 10:14:21;;;;;;;;;;;1.90;99.90;;;;;;5065787;28;19986;-67
2023/12/17 10:16:49;;;;;;;;;;;1.90;99.90;;;;;;5067013;28;19997;-66
2023/12/17 10:19:15;;;;;;;;;;;1.90;99.90;;;;;;5066907;28;20006;-67
2023/12/17 10:21:42;;;;;;;;;;;1.90;99.90;;;;;;5067573;28;20018;-67
2023/12/17 10:24:10;;;;;;;;;;;1.90;99.90;;;;;;5066492;28;20419;-67
2023/12/17 10:26:42;;;;;;;;;;;1.90;99.90;;;;;;5070879;28;20023;-67
2023/12/17 10:29:10;;;;;;;;;;;2.00;99.90;;;;;;5067230;28;19992;-66
2023/12/17 10:31:38;;;;;;;;;;;2.00;99.90;;;;;;5068389;28;20376;-67
2023/12/17 10:34:11;;;;;;;;;;;2.00;99.90;;;;;;5073444;28;19974;-67
2023/12/17 10:36:38;;;;;;;;;;;2.00;99.90;;;;;;5067317;28;20019;-67
2023/12/17 10:39:05;;;;;;;;;;;2.00;99.90;;;;;;5070180;28;20376;-66
2023/12/17 10:41:34;;;;;;;;;;;2.00;99.90;;;;;;5068166;28;20002;-67
2023/12/17 10:44:02;;;;;;;;;;;2.00;99.90;;;;;;5066805;28;20029;-66
2023/12/17 10:46:29;;;;;;;;;;;2.00;99.90;;;;;;5064564;28;19998;-67
2023/12/17 10:48:56;;;;;;;;;;;2.10;99.90;;;;;;5069122;28;19998;-67
2023/12/17 10:51:23;;;;;;;;;;;2.10;99.90;;;;;;5065781;28;19983;-67
2023/12/17 10:53:50;;;;;;;;;;;2.10;99.90;;;;;;5068375;28;19994;-67
2023/12/17 10:56:17;;;;;;;;;;;2.10;99.90;;;;;;5071436;28;19979;-67
2023/12/17 10:58:46;;;;;;;;;;;2.10;99.90;;;;;;5065279;28;20003;-67
2023/12/17 11:01:13;;;;;;;;;;;2.10;99.90;;;;;;5065701;28;20519;-67
2023/12/17 11:03:40;;;;;;;;;;;2.10;99.90;;;;;;5066395;28;19975;-66
2023/12/17 11:06:07;;;;;;;;;;;2.20;99.90;;;;;;5065817;28;19983;-68
2023/12/17 11:08:35;;;;;;;;;;;2.20;99.90;;;;;;5064291;28;20651;-68
2023/12/17 11:11:02;;;;;;;;;;;2.20;99.90;;;;;;5067900;28;19980;-67
2023/12/17 11:13:29;;;;;;;;;;;2.20;99.90;;;;;;5066579;28;19994;-68
2023/12/17 11:15:56;;;;;;;;;;;2.20;99.90;;;;;;5064719;28;20076;-66
2023/12/17 11:18:24;;;;;;;;;;;2.20;99.90;;;;;;5066815;28;20018;-67
2023/12/17 11:20:52;;;;;;;;;;;2.20;99.90;;;;;;5067546;28;19982;-67
2023/12/17 11:23:19;;;;;;;;;;;2.20;99.90;;;;;;5066769;28;19979;-66
2023/12/17 11:25:46;;;;;;;;;;;2.20;99.90;;;;;;5065152;28;20770;-66
2023/12/17 11:28:13;;;;;;;;;;;2.20;99.90;;;;;;5068169;28;20003;-67
2023/12/17 11:30:40;;;;;;;;;;;2.30;99.90;;;;;;5065031;28;19995;-67
2023/12/17 11:33:08;;;;;;;;;;;2.30;99.90;;;;;;5070176;28;19971;-68
2023/12/17 11:35:37;;;;;;;;;;;2.30;99.90;;;;;;5068531;28;19976;-68
2023/12/17 11:38:05;;;;;;;;;;;2.30;99.90;;;;;;5069034;28;19995;-67
2023/12/17 11:40:31;;;;;;;;;;;2.30;99.90;;;;;;5066715;28;19990;-66
2023/12/17 11:42:58;;;;;;;;;;;2.30;99.90;;;;;;5067450;28;20053;-67
2023/12/17 11:45:32;;;;;;;;;;;2.30;99.90;;;;;;5063963;28;19984;-67
2023/12/17 11:48:04;;;;;;;;;;;2.30;99.90;;;;;;5067438;28;20031;-67
2023/12/17 11:50:40;;;;;;;;;;;2.30;99.90;;;;;;5064425;28;19994;-67
2023/12/17 11:53:07;;;;;;;;;;;2.30;99.90;;;;;;5065187;28;20088;-66
2023/12/17 11:55:41;;;;;;;;;;;2.40;99.90;;;;;;5066502;28;20330;-67
2023/12/17 11:58:07;;;;;;;;;;;2.40;99.90;;;;;;5067836;28;19996;-67
2023/12/17 12:00:34;;;;;;;;;;;2.40;99.90;;;;;;5064798;28;20018;-67
2023/12/17 12:03:00;;;;;;;;;;;2.40;99.90;;;;;;5067519;28;19995;-68
2023/12/17 12:05:27;;;;;;;;;;;2.40;99.90;;;;;;5066663;28;20021;-67
2023/12/17 12:07:55;;;;;;;;;;;2.40;99.90;;;;;;5068136;28;19995;-67
2023/12/17 12:10:22;;;;;;;;;;;2.40;99.90;;;;;;5066717;28;20471;-67
2023/12/17 12:12:59;;;;;;;;;;;2.50;99.90;;;;;;5067861;28;19982;-68
2023/12/17 12:15:26;;;;;;;;;;;2.50;99.90;;;;;;5064314;28;19987;-67
2023/12/17 12:17:53;;;;;;;;;;;2.50;99.90;;;;;;5065803;28;20003;-67
2023/12/17 12:20:32;;;;;;;;;;;2.60;99.90;;;;;;5067548;28;19987;-67
2023/12/17 12:23:00;;;;;;;;;;;2.60;99.90;;;;;;5066549;28;19987;-68
2023/12/17 12:25:27;;;;;;;;;;;2.60;99.90;;;;;;5066108;28;19979;-67
2023/12/17 12:27:53;;;;;;;;;;;2.70;99.90;;;;;;5066104;28;19992;-67
2023/12/17 12:30:28;;;;;;;;;;;2.70;99.90;;;;;;5066229;28;19989;-67
2023/12/17 12:32:55;;;;;;;;;;;2.70;99.90;;;;;;5067659;28;20040;-67
2023/12/17 12:35:29;;;;;;;;;;;2.70;99.90;;;;;;5066859;28;20040;-67
2023/12/17 12:37:55;;;;;;;;;;;2.80;99.90;;;;;;5064726;28;19992;-67
2023/12/17 12:40:31;;;;;;;;;;;2.80;99.90;;;;;;5066216;28;20683;-67
2023/12/17 12:43:01;;;;;;;;;;;2.80;99.90;;;;;;5066261;28;20559;-67
2023/12/17 12:45:27;;;;;;;;;;;2.90;99.90;;;;;;5064803;28;20003;-67
2023/12/17 12:47:54;;;;;;;;;;;2.90;99.90;;;;;;5065807;28;20459;-67
2023/12/17 12:50:20;;;;;;;;;;;2.90;99.90;;;;;;5067484;28;19983;-67
2023/12/17 12:52:47;;;;;;;;;;;2.90;99.90;;;;;;5065189;28;19975;-68
2023/12/17 12:55:13;;;;;;;;;;;2.90;99.90;;;;;;5067078;28;20448;-67
2023/12/17 12:57:41;;;;;;;;;;;2.90;99.90;;;;;;5064148;28;20512;-67
2023/12/17 13:00:08;;;;;;;;;;;3.00;99.90;;;;;;5065381;28;19975;-66
2023/12/17 13:02:36;;;;;;;;;;;3.00;99.90;;;;;;5065744;28;20034;-67
2023/12/17 13:05:02;;;;;;;;;;;3.00;99.90;;;;;;5067286;28;19975;-67
2023/12/17 13:07:29;;;;;;;;;;;3.10;99.90;;;;;;5066108;28;19979;-68
2023/12/17 13:09:55;;;;;;;;;;;3.10;99.90;;;;;;5064404;28;19976;-67
2023/12/17 13:12:22;;;;;;;;;;;3.20;99.90;;;;;;5066959;28;20575;-67
2023/12/17 13:14:49;;;;;;;;;;;3.20;99.90;;;;;;5063731;28;19975;-67
2023/12/17 13:17:16;;;;;;;;;;;3.20;99.90;;;;;;5065382;28;19990;-67
2023/12/17 13:19:43;;;;;;;;;;;3.20;99.90;;;;;;5064965;28;19983;-67
2023/12/17 13:22:09;;;;;;;;;;;3.20;99.90;;;;;;5067417;28;20002;-67
2023/12/17 13:24:36;;;;;;;;;;;3.20;99.90;;;;;;5064523;28;19976;-68
2023/12/17 13:27:02;;;;;;;;;;;3.30;99.90;;;;;;5065884;28;20373;-67
2023/12/17 13:29:29;;;;;;;;;;;3.30;99.90;;;;;;5061254;28;20002;-66
2023/12/17 13:31:56;;;;;;;;;;;3.30;99.90;;;;;;5064753;28;19998;-66
2023/12/17 13:34:23;;;;;;;;;;;3.30;99.90;;;;;;5065280;28;19979;-66
2023/12/17 13:36:50;;;;;;;;;;;3.40;99.90;;;;;;5065699;28;19975;-66
2023/12/17 13:39:17;;;;;;;;;;;3.40;99.90;;;;;;5065683;28;20360;-66
2023/12/17 13:41:43;;;;;;;;;;;3.40;99.90;;;;;;5062134;28;19979;-67
2023/12/17 13:44:10;;;;;;;;;;;3.50;99.90;;;;;;5064520;28;19983;-67
2023/12/17 13:46:37;;;;;;;;;;;3.50;99.90;;;;;;5064918;28;20082;-67
2023/12/17 13:49:05;;;;;;;;;;;3.60;99.90;;;;;;5065823;28;20343;-67
2023/12/17 13:51:32;;;;;;;;;;;3.70;99.90;;;;;;5065768;28;19988;-67
2023/12/17 13:53:58;;;;;;;;;;;3.70;99.90;;;;;;5063988;28;19986;-66
2023/12/17 13:56:25;;;;;;;;;;;3.80;99.90;;;;;;5064916;28;19980;-67
2023/12/17 13:58:51;;;;;;;;;;;3.90;99.90;;;;;;5061977;28;19991;-67
2023/12/17 14:01:21;;;;;;;;;;;3.90;99.90;;;;;;5067071;28;20002;-66
2023/12/17 14:03:48;;;;;;;;;;;4.00;99.90;;;;;;5062917;28;19992;-67
2023/12/17 14:06:16;;;;;;;;;;;4.00;99.90;;;;;;5066690;28;19983;-68
2023/12/17 14:08:43;;;;;;;;;;;4.10;99.90;;;;;;5064680;28;20000;-67
2023/12/17 14:11:09;;;;;;;;;;;4.10;99.90;;;;;;5064788;28;19976;-67
2023/12/17 14:13:36;;;;;;;;;;;4.20;99.90;;;;;;5063344;28;19975;-67
2023/12/17 14:16:04;;;;;;;;;;;4.20;99.90;;;;;;5063817;28;20014;-66
2023/12/17 14:18:30;;;;;;;;;;;4.20;99.90;;;;;;5062140;28;20007;-68
2023/12/17 14:20:57;;;;;;;;;;;4.20;99.90;;;;;;5065412;28;19975;-67
2023/12/17 14:23:25;;;;;;;;;;;4.20;99.90;;;;;;5067149;28;19999;-67
2023/12/17 14:25:51;;;;;;;;;;;4.20;99.90;;;;;;5066074;28;20274;-67
2023/12/17 14:28:18;;;;;;;;;;;4.20;99.90;;;;;;5071638;28;20370;-67
2023/12/17 14:30:44;;;;;;;;;;;4.10;99.90;;;;;;5065978;28;19999;-68